sensor_id;sensor_type;location;lat;lon;timestamp;P1;durP1;ratioP1;P2;durP2;ratioP2
3891;SDS011;1961;48.194;16.370;2022-09-30T00:01:02;43.30;;;6.87;;
3891;SDS011;1961;48.194;16.370;2022-09-30T00:03:28;43.97;;;7.23;;
3891;SDS011;1961;48.194;16.370;2022-09-30T00:05:58;43.87;;;6.77;;
3891;SDS011;1961;48.194;16.370;2022-09-30T00:08:24;47.30;;;7.60;;
3891;SDS011;1961;48.194;16.370;2022-09-30T00:11:01;76.67;;;11.40;;
3891;SDS011;1961;48.194;16.370;2022-09-30T00:13:28;43.50;;;7.40;;
3891;SDS011;1961;48.194;16.370;2022-09-30T00:15:54;42.97;;;7.17;;
3891;SDS011;1961;48.194;16.370;2022-09-30T00:18:21;42.63;;;7.20;;
3891;SDS011;1961;48.194;16.370;2022-09-30T00:20:47;43.30;;;7.07;;
3891;SDS011;1961;48.194;16.370;2022-09-30T00:23:13;43.00;;;6.60;;
3891;SDS011;1961;48.194;16.370;2022-09-30T00:25:39;43.10;;;7.37;;
3891;SDS011;1961;48.194;16.370;2022-09-30T00:28:05;44.00;;;7.40;;
3891;SDS011;1961;48.194;16.370;2022-09-30T00:30:32;43.47;;;7.57;;
3891;SDS011;1961;48.194;16.370;2022-09-30T00:32:59;43.60;;;7.13;;
3891;SDS011;1961;48.194;16.370;2022-09-30T00:35:25;44.37;;;7.23;;
3891;SDS011;1961;48.194;16.370;2022-09-30T00:37:51;44.47;;;7.40;;
3891;SDS011;1961;48.194;16.370;2022-09-30T00:40:19;43.97;;;7.77;;
3891;SDS011;1961;48.194;16.370;2022-09-30T00:42:45;43.50;;;7.20;;
3891;SDS011;1961;48.194;16.370;2022-09-30T00:45:12;45.20;;;6.93;;
3891;SDS011;1961;48.194;16.370;2022-09-30T00:47:56;43.67;;;7.33;;
3891;SDS011;1961;48.194;16.370;2022-09-30T00:50:36;43.33;;;7.53;;
3891;SDS011;1961;48.194;16.370;2022-09-30T00:53:37;44.60;;;8.03;;
3891;SDS011;1961;48.194;16.370;2022-09-30T00:55:59;43.40;;;7.20;;
3891;SDS011;1961;48.194;16.370;2022-09-30T00:58:29;43.80;;;7.57;;
3891;SDS011;1961;48.194;16.370;2022-09-30T01:00:56;44.20;;;7.83;;
3891;SDS011;1961;48.194;16.370;2022-09-30T01:03:23;43.70;;;7.93;;
3891;SDS011;1961;48.194;16.370;2022-09-30T01:05:50;44.57;;;8.27;;
3891;SDS011;1961;48.194;16.370;2022-09-30T01:08:17;45.37;;;8.77;;
3891;SDS011;1961;48.194;16.370;2022-09-30T01:10:44;45.20;;;7.83;;
3891;SDS011;1961;48.194;16.370;2022-09-30T01:13:10;45.00;;;8.43;;
3891;SDS011;1961;48.194;16.370;2022-09-30T01:15:41;45.27;;;8.73;;
3891;SDS011;1961;48.194;16.370;2022-09-30T01:18:17;44.57;;;8.90;;
3891;SDS011;1961;48.194;16.370;2022-09-30T01:20:53;44.90;;;8.73;;
3891;SDS011;1961;48.194;16.370;2022-09-30T01:34:04;47.43;;;8.33;;
3891;SDS011;1961;48.194;16.370;2022-09-30T01:41:51;47.53;;;9.97;;
3891;SDS011;1961;48.194;16.370;2022-09-30T01:44:23;45.40;;;9.07;;
3891;SDS011;1961;48.194;16.370;2022-09-30T01:46:53;46.63;;;9.87;;
3891;SDS011;1961;48.194;16.370;2022-09-30T01:52:12;45.63;;;9.30;;
3891;SDS011;1961;48.194;16.370;2022-09-30T01:57:10;47.30;;;9.53;;
3891;SDS011;1961;48.194;16.370;2022-09-30T01:59:40;46.50;;;9.60;;
3891;SDS011;1961;48.194;16.370;2022-09-30T02:02:12;45.93;;;10.43;;
3891;SDS011;1961;48.194;16.370;2022-09-30T02:04:42;45.10;;;10.00;;
3891;SDS011;1961;48.194;16.370;2022-09-30T02:07:11;49.60;;;10.13;;
3891;SDS011;1961;48.194;16.370;2022-09-30T02:09:48;45.50;;;9.80;;
3891;SDS011;1961;48.194;16.370;2022-09-30T02:12:17;45.30;;;9.53;;
3891;SDS011;1961;48.194;16.370;2022-09-30T02:14:48;46.73;;;9.10;;
3891;SDS011;1961;48.194;16.370;2022-09-30T02:17:16;44.50;;;9.20;;
3891;SDS011;1961;48.194;16.370;2022-09-30T02:20:04;46.10;;;9.53;;
3891;SDS011;1961;48.194;16.370;2022-09-30T02:22:39;44.97;;;9.90;;
3891;SDS011;1961;48.194;16.370;2022-09-30T02:25:13;45.90;;;10.13;;
3891;SDS011;1961;48.194;16.370;2022-09-30T02:27:44;45.50;;;9.67;;
3891;SDS011;1961;48.194;16.370;2022-09-30T02:30:12;50.03;;;12.17;;
3891;SDS011;1961;48.194;16.370;2022-09-30T02:35:13;46.97;;;9.90;;
3891;SDS011;1961;48.194;16.370;2022-09-30T02:37:43;45.37;;;9.40;;
3891;SDS011;1961;48.194;16.370;2022-09-30T02:40:15;46.83;;;10.20;;
3891;SDS011;1961;48.194;16.370;2022-09-30T02:42:45;49.83;;;11.33;;
3891;SDS011;1961;48.194;16.370;2022-09-30T02:45:13;50.03;;;11.00;;
3891;SDS011;1961;48.194;16.370;2022-09-30T02:55:18;50.20;;;11.17;;
3891;SDS011;1961;48.194;16.370;2022-09-30T02:57:53;47.70;;;10.40;;
3891;SDS011;1961;48.194;16.370;2022-09-30T03:00:22;46.50;;;10.80;;
3891;SDS011;1961;48.194;16.370;2022-09-30T03:02:49;46.50;;;10.30;;
3891;SDS011;1961;48.194;16.370;2022-09-30T03:05:16;46.87;;;10.47;;
3891;SDS011;1961;48.194;16.370;2022-09-30T03:07:43;47.67;;;10.53;;
3891;SDS011;1961;48.194;16.370;2022-09-30T03:10:15;46.67;;;10.53;;
3891;SDS011;1961;48.194;16.370;2022-09-30T03:26:05;48.53;;;11.83;;
3891;SDS011;1961;48.194;16.370;2022-09-30T03:28:55;50.13;;;11.73;;
3891;SDS011;1961;48.194;16.370;2022-09-30T03:31:30;48.00;;;12.00;;
3891;SDS011;1961;48.194;16.370;2022-09-30T03:34:06;49.60;;;11.87;;
3891;SDS011;1961;48.194;16.370;2022-09-30T03:36:39;49.37;;;12.53;;
3891;SDS011;1961;48.194;16.370;2022-09-30T03:39:27;50.73;;;12.23;;
3891;SDS011;1961;48.194;16.370;2022-09-30T03:42:02;49.23;;;13.10;;
3891;SDS011;1961;48.194;16.370;2022-09-30T03:44:34;52.30;;;12.70;;
3891;SDS011;1961;48.194;16.370;2022-09-30T03:47:11;48.97;;;12.80;;
3891;SDS011;1961;48.194;16.370;2022-09-30T03:49:41;52.87;;;12.97;;
3891;SDS011;1961;48.194;16.370;2022-09-30T03:52:10;50.87;;;13.40;;
3891;SDS011;1961;48.194;16.370;2022-09-30T03:54:50;50.83;;;13.53;;
3891;SDS011;1961;48.194;16.370;2022-09-30T03:57:17;53.37;;;14.10;;
3891;SDS011;1961;48.194;16.370;2022-09-30T03:59:43;51.67;;;13.60;;
3891;SDS011;1961;48.194;16.370;2022-09-30T04:02:09;48.50;;;12.50;;
3891;SDS011;1961;48.194;16.370;2022-09-30T04:04:40;48.20;;;12.27;;
3891;SDS011;1961;48.194;16.370;2022-09-30T04:07:07;50.37;;;12.90;;
3891;SDS011;1961;48.194;16.370;2022-09-30T04:09:35;49.07;;;11.70;;
3891;SDS011;1961;48.194;16.370;2022-09-30T04:12:01;48.40;;;11.73;;
3891;SDS011;1961;48.194;16.370;2022-09-30T04:14:27;49.27;;;12.00;;
3891;SDS011;1961;48.194;16.370;2022-09-30T04:16:54;50.27;;;12.23;;
3891;SDS011;1961;48.194;16.370;2022-09-30T04:19:20;48.47;;;12.10;;
3891;SDS011;1961;48.194;16.370;2022-09-30T04:21:46;49.30;;;12.37;;
3891;SDS011;1961;48.194;16.370;2022-09-30T04:24:12;50.63;;;12.70;;
3891;SDS011;1961;48.194;16.370;2022-09-30T04:26:39;50.20;;;12.67;;
3891;SDS011;1961;48.194;16.370;2022-09-30T04:29:05;48.80;;;12.13;;
3891;SDS011;1961;48.194;16.370;2022-09-30T04:31:31;48.80;;;11.80;;
3891;SDS011;1961;48.194;16.370;2022-09-30T04:33:57;50.77;;;12.10;;
3891;SDS011;1961;48.194;16.370;2022-09-30T04:36:23;49.20;;;12.00;;
3891;SDS011;1961;48.194;16.370;2022-09-30T04:38:49;50.00;;;13.80;;
3891;SDS011;1961;48.194;16.370;2022-09-30T04:41:17;51.60;;;12.83;;
3891;SDS011;1961;48.194;16.370;2022-09-30T04:43:45;49.40;;;12.80;;
3891;SDS011;1961;48.194;16.370;2022-09-30T04:46:12;51.20;;;13.40;;
3891;SDS011;1961;48.194;16.370;2022-09-30T04:48:39;49.27;;;12.60;;
3891;SDS011;1961;48.194;16.370;2022-09-30T04:51:19;49.53;;;11.90;;
3891;SDS011;1961;48.194;16.370;2022-09-30T04:53:46;50.97;;;13.43;;
3891;SDS011;1961;48.194;16.370;2022-09-30T04:56:12;53.17;;;13.83;;
3891;SDS011;1961;48.194;16.370;2022-09-30T04:58:39;49.37;;;12.23;;
3891;SDS011;1961;48.194;16.370;2022-09-30T05:01:06;50.80;;;13.80;;
3891;SDS011;1961;48.194;16.370;2022-09-30T05:03:33;51.23;;;12.70;;
3891;SDS011;1961;48.194;16.370;2022-09-30T05:06:00;49.03;;;12.97;;
3891;SDS011;1961;48.194;16.370;2022-09-30T05:08:27;50.13;;;12.77;;
3891;SDS011;1961;48.194;16.370;2022-09-30T05:10:54;50.70;;;12.77;;
3891;SDS011;1961;48.194;16.370;2022-09-30T05:13:22;51.47;;;12.13;;
3891;SDS011;1961;48.194;16.370;2022-09-30T05:15:48;52.00;;;12.83;;
3891;SDS011;1961;48.194;16.370;2022-09-30T05:18:14;48.97;;;12.20;;
3891;SDS011;1961;48.194;16.370;2022-09-30T05:20:40;50.57;;;13.27;;
3891;SDS011;1961;48.194;16.370;2022-09-30T05:23:07;53.80;;;13.53;;
3891;SDS011;1961;48.194;16.370;2022-09-30T05:25:34;50.87;;;12.60;;
3891;SDS011;1961;48.194;16.370;2022-09-30T05:28:00;52.07;;;13.60;;
3891;SDS011;1961;48.194;16.370;2022-09-30T05:30:27;51.17;;;13.83;;
3891;SDS011;1961;48.194;16.370;2022-09-30T05:32:53;54.67;;;14.50;;
3891;SDS011;1961;48.194;16.370;2022-09-30T05:35:20;50.87;;;13.33;;
3891;SDS011;1961;48.194;16.370;2022-09-30T05:37:46;53.70;;;13.27;;
3891;SDS011;1961;48.194;16.370;2022-09-30T05:40:12;50.37;;;12.87;;
3891;SDS011;1961;48.194;16.370;2022-09-30T05:42:39;52.23;;;13.80;;
3891;SDS011;1961;48.194;16.370;2022-09-30T05:45:05;53.70;;;13.23;;
3891;SDS011;1961;48.194;16.370;2022-09-30T05:47:32;50.30;;;13.10;;
3891;SDS011;1961;48.194;16.370;2022-09-30T05:49:59;49.97;;;12.93;;
3891;SDS011;1961;48.194;16.370;2022-09-30T05:52:26;50.67;;;12.17;;
3891;SDS011;1961;48.194;16.370;2022-09-30T05:54:52;52.30;;;12.87;;
3891;SDS011;1961;48.194;16.370;2022-09-30T05:57:19;49.53;;;13.07;;
3891;SDS011;1961;48.194;16.370;2022-09-30T05:59:46;50.50;;;12.70;;
3891;SDS011;1961;48.194;16.370;2022-09-30T06:02:12;56.30;;;13.70;;
3891;SDS011;1961;48.194;16.370;2022-09-30T06:04:38;53.97;;;13.90;;
3891;SDS011;1961;48.194;16.370;2022-09-30T06:07:04;52.57;;;13.57;;
3891;SDS011;1961;48.194;16.370;2022-09-30T06:09:31;51.47;;;11.90;;
3891;SDS011;1961;48.194;16.370;2022-09-30T06:11:57;50.23;;;11.70;;
3891;SDS011;1961;48.194;16.370;2022-09-30T06:14:24;46.97;;;10.00;;
3891;SDS011;1961;48.194;16.370;2022-09-30T06:16:53;47.60;;;10.23;;
3891;SDS011;1961;48.194;16.370;2022-09-30T06:19:19;48.50;;;9.53;;
3891;SDS011;1961;48.194;16.370;2022-09-30T06:21:45;43.60;;;8.00;;
3891;SDS011;1961;48.194;16.370;2022-09-30T06:24:11;46.67;;;7.10;;
3891;SDS011;1961;48.194;16.370;2022-09-30T06:26:38;44.80;;;7.33;;
3891;SDS011;1961;48.194;16.370;2022-09-30T06:29:07;44.33;;;7.53;;
3891;SDS011;1961;48.194;16.370;2022-09-30T06:31:33;43.83;;;6.90;;
3891;SDS011;1961;48.194;16.370;2022-09-30T06:33:59;42.67;;;7.13;;
3891;SDS011;1961;48.194;16.370;2022-09-30T06:36:26;42.60;;;6.80;;
3891;SDS011;1961;48.194;16.370;2022-09-30T06:38:53;42.43;;;6.47;;
3891;SDS011;1961;48.194;16.370;2022-09-30T06:41:20;47.30;;;10.10;;
3891;SDS011;1961;48.194;16.370;2022-09-30T06:43:52;46.50;;;8.87;;
3891;SDS011;1961;48.194;16.370;2022-09-30T06:46:18;42.50;;;6.60;;
3891;SDS011;1961;48.194;16.370;2022-09-30T06:48:48;42.70;;;6.93;;
3891;SDS011;1961;48.194;16.370;2022-09-30T06:51:17;45.17;;;8.33;;
3891;SDS011;1961;48.194;16.370;2022-09-30T06:53:44;48.30;;;8.00;;
3891;SDS011;1961;48.194;16.370;2022-09-30T06:56:10;44.87;;;7.63;;
3891;SDS011;1961;48.194;16.370;2022-09-30T06:58:37;45.50;;;8.50;;
3891;SDS011;1961;48.194;16.370;2022-09-30T07:01:05;44.63;;;7.90;;
3891;SDS011;1961;48.194;16.370;2022-09-30T07:03:34;43.97;;;8.23;;
3891;SDS011;1961;48.194;16.370;2022-09-30T07:06:01;45.20;;;8.57;;
3891;SDS011;1961;48.194;16.370;2022-09-30T07:08:29;43.83;;;7.50;;
3891;SDS011;1961;48.194;16.370;2022-09-30T07:10:59;45.40;;;8.40;;
3891;SDS011;1961;48.194;16.370;2022-09-30T07:13:26;52.23;;;8.93;;
3891;SDS011;1961;48.194;16.370;2022-09-30T07:15:53;47.17;;;9.50;;
3891;SDS011;1961;48.194;16.370;2022-09-30T07:18:23;46.57;;;9.30;;
3891;SDS011;1961;48.194;16.370;2022-09-30T07:20:52;46.80;;;9.00;;
3891;SDS011;1961;48.194;16.370;2022-09-30T07:23:21;48.87;;;8.80;;
3891;SDS011;1961;48.194;16.370;2022-09-30T07:25:57;46.20;;;8.50;;
3891;SDS011;1961;48.194;16.370;2022-09-30T07:28:26;47.20;;;9.13;;
3891;SDS011;1961;48.194;16.370;2022-09-30T07:30:57;46.67;;;9.53;;
3891;SDS011;1961;48.194;16.370;2022-09-30T07:33:24;54.10;;;16.63;;
3891;SDS011;1961;48.194;16.370;2022-09-30T07:35:56;51.90;;;12.47;;
3891;SDS011;1961;48.194;16.370;2022-09-30T07:38:24;47.70;;;10.40;;
3891;SDS011;1961;48.194;16.370;2022-09-30T07:40:58;48.27;;;11.30;;
3891;SDS011;1961;48.194;16.370;2022-09-30T07:43:26;47.77;;;10.80;;
3891;SDS011;1961;48.194;16.370;2022-09-30T07:48:34;49.00;;;12.20;;
3891;SDS011;1961;48.194;16.370;2022-09-30T07:53:51;49.80;;;13.20;;
3891;SDS011;1961;48.194;16.370;2022-09-30T07:56:18;49.67;;;12.33;;
3891;SDS011;1961;48.194;16.370;2022-09-30T07:58:44;53.87;;;13.43;;
3891;SDS011;1961;48.194;16.370;2022-09-30T08:01:10;49.47;;;12.93;;
3891;SDS011;1961;48.194;16.370;2022-09-30T08:03:38;55.60;;;15.77;;
3891;SDS011;1961;48.194;16.370;2022-09-30T08:06:06;51.30;;;13.40;;
3891;SDS011;1961;48.194;16.370;2022-09-30T08:08:33;51.57;;;14.30;;
3891;SDS011;1961;48.194;16.370;2022-09-30T08:11:00;52.27;;;15.80;;
3891;SDS011;1961;48.194;16.370;2022-09-30T08:13:26;55.20;;;16.57;;
3891;SDS011;1961;48.194;16.370;2022-09-30T08:15:53;54.80;;;16.70;;
3891;SDS011;1961;48.194;16.370;2022-09-30T08:18:19;56.67;;;16.10;;
3891;SDS011;1961;48.194;16.370;2022-09-30T08:20:46;54.77;;;16.20;;
3891;SDS011;1961;48.194;16.370;2022-09-30T08:23:12;54.70;;;16.80;;
3891;SDS011;1961;48.194;16.370;2022-09-30T08:25:38;58.10;;;17.03;;
3891;SDS011;1961;48.194;16.370;2022-09-30T08:28:04;52.17;;;15.60;;
3891;SDS011;1961;48.194;16.370;2022-09-30T08:30:33;55.00;;;14.77;;
3891;SDS011;1961;48.194;16.370;2022-09-30T08:32:59;51.20;;;14.97;;
3891;SDS011;1961;48.194;16.370;2022-09-30T08:35:25;54.33;;;17.53;;
3891;SDS011;1961;48.194;16.370;2022-09-30T08:37:52;54.87;;;15.40;;
3891;SDS011;1961;48.194;16.370;2022-09-30T08:40:27;56.83;;;16.67;;
3891;SDS011;1961;48.194;16.370;2022-09-30T08:50:34;54.77;;;15.90;;
3891;SDS011;1961;48.194;16.370;2022-09-30T08:53:10;56.07;;;15.27;;
3891;SDS011;1961;48.194;16.370;2022-09-30T08:55:42;54.23;;;15.50;;
3891;SDS011;1961;48.194;16.370;2022-09-30T08:58:14;53.23;;;14.67;;
3891;SDS011;1961;48.194;16.370;2022-09-30T09:00:41;51.00;;;13.70;;
3891;SDS011;1961;48.194;16.370;2022-09-30T09:03:08;52.40;;;14.63;;
3891;SDS011;1961;48.194;16.370;2022-09-30T09:06:21;53.87;;;14.67;;
3891;SDS011;1961;48.194;16.370;2022-09-30T09:08:42;50.70;;;13.90;;
3891;SDS011;1961;48.194;16.370;2022-09-30T09:11:39;51.37;;;13.57;;
3891;SDS011;1961;48.194;16.370;2022-09-30T09:14:05;52.50;;;13.50;;
3891;SDS011;1961;48.194;16.370;2022-09-30T09:16:44;50.30;;;13.97;;
3891;SDS011;1961;48.194;16.370;2022-09-30T09:19:14;49.10;;;13.53;;
3891;SDS011;1961;48.194;16.370;2022-09-30T09:21:48;53.00;;;15.13;;
3891;SDS011;1961;48.194;16.370;2022-09-30T09:24:20;48.27;;;12.57;;
3891;SDS011;1961;48.194;16.370;2022-09-30T09:26:47;48.50;;;12.80;;
3891;SDS011;1961;48.194;16.370;2022-09-30T09:31:53;55.17;;;12.20;;
3891;SDS011;1961;48.194;16.370;2022-09-30T09:34:21;50.13;;;12.47;;
3891;SDS011;1961;48.194;16.370;2022-09-30T09:39:36;51.60;;;13.17;;
3891;SDS011;1961;48.194;16.370;2022-09-30T09:42:16;48.30;;;12.80;;
3891;SDS011;1961;48.194;16.370;2022-09-30T09:44:54;47.73;;;11.67;;
3891;SDS011;1961;48.194;16.370;2022-09-30T09:47:21;47.77;;;11.50;;
3891;SDS011;1961;48.194;16.370;2022-09-30T09:54:49;47.60;;;11.47;;
3891;SDS011;1961;48.194;16.370;2022-09-30T09:57:17;51.60;;;13.13;;
3891;SDS011;1961;48.194;16.370;2022-09-30T09:59:59;46.90;;;10.47;;
3891;SDS011;1961;48.194;16.370;2022-09-30T10:02:57;47.90;;;11.23;;
3891;SDS011;1961;48.194;16.370;2022-09-30T10:05:25;46.63;;;10.90;;
3891;SDS011;1961;48.194;16.370;2022-09-30T10:08:07;47.70;;;10.17;;
3891;SDS011;1961;48.194;16.370;2022-09-30T10:10:40;49.00;;;13.03;;
3891;SDS011;1961;48.194;16.370;2022-09-30T10:13:19;50.73;;;11.10;;
3891;SDS011;1961;48.194;16.370;2022-09-30T10:15:46;47.67;;;11.63;;
3891;SDS011;1961;48.194;16.370;2022-09-30T10:18:34;48.40;;;11.87;;
3891;SDS011;1961;48.194;16.370;2022-09-30T10:21:04;46.37;;;11.30;;
3891;SDS011;1961;48.194;16.370;2022-09-30T10:23:32;48.60;;;11.93;;
3891;SDS011;1961;48.194;16.370;2022-09-30T10:28:29;48.30;;;11.90;;
3891;SDS011;1961;48.194;16.370;2022-09-30T10:30:56;48.77;;;11.50;;
3891;SDS011;1961;48.194;16.370;2022-09-30T10:35:59;50.37;;;11.80;;
3891;SDS011;1961;48.194;16.370;2022-09-30T10:38:26;47.87;;;11.77;;
3891;SDS011;1961;48.194;16.370;2022-09-30T10:40:53;48.67;;;11.93;;
3891;SDS011;1961;48.194;16.370;2022-09-30T10:43:25;50.47;;;12.70;;
3891;SDS011;1961;48.194;16.370;2022-09-30T10:45:52;53.13;;;12.50;;
3891;SDS011;1961;48.194;16.370;2022-09-30T10:48:19;47.20;;;11.70;;
3891;SDS011;1961;48.194;16.370;2022-09-30T10:50:56;48.20;;;11.50;;
3891;SDS011;1961;48.194;16.370;2022-09-30T10:53:23;48.07;;;12.87;;
3891;SDS011;1961;48.194;16.370;2022-09-30T10:55:51;49.57;;;11.93;;
3891;SDS011;1961;48.194;16.370;2022-09-30T11:00:52;50.50;;;12.63;;
3891;SDS011;1961;48.194;16.370;2022-09-30T11:03:21;48.20;;;12.20;;
3891;SDS011;1961;48.194;16.370;2022-09-30T11:05:49;52.07;;;13.83;;
3891;SDS011;1961;48.194;16.370;2022-09-30T11:08:21;51.03;;;13.57;;
3891;SDS011;1961;48.194;16.370;2022-09-30T11:10:55;50.47;;;11.27;;
3891;SDS011;1961;48.194;16.370;2022-09-30T11:16:02;47.93;;;10.23;;
3891;SDS011;1961;48.194;16.370;2022-09-30T11:18:33;48.83;;;11.27;;
3891;SDS011;1961;48.194;16.370;2022-09-30T11:21:02;53.57;;;11.20;;
3891;SDS011;1961;48.194;16.370;2022-09-30T11:23:35;50.67;;;10.37;;
3891;SDS011;1961;48.194;16.370;2022-09-30T11:26:13;47.60;;;10.90;;
3891;SDS011;1961;48.194;16.370;2022-09-30T11:28:48;47.77;;;10.40;;
3891;SDS011;1961;48.194;16.370;2022-09-30T11:33:56;49.60;;;11.30;;
3891;SDS011;1961;48.194;16.370;2022-09-30T11:41:52;50.63;;;9.47;;
3891;SDS011;1961;48.194;16.370;2022-09-30T11:49:34;48.20;;;10.10;;
3891;SDS011;1961;48.194;16.370;2022-09-30T11:52:20;48.87;;;9.87;;
3891;SDS011;1961;48.194;16.370;2022-09-30T12:02:30;45.00;;;8.10;;
3891;SDS011;1961;48.194;16.370;2022-09-30T12:05:04;47.27;;;8.73;;
3891;SDS011;1961;48.194;16.370;2022-09-30T12:07:35;46.90;;;8.10;;
3891;SDS011;1961;48.194;16.370;2022-09-30T12:12:41;43.40;;;7.50;;
3891;SDS011;1961;48.194;16.370;2022-09-30T12:15:11;44.70;;;7.23;;
3891;SDS011;1961;48.194;16.370;2022-09-30T12:17:40;43.40;;;6.97;;
3891;SDS011;1961;48.194;16.370;2022-09-30T12:20:14;43.00;;;6.50;;
3891;SDS011;1961;48.194;16.370;2022-09-30T12:22:43;44.80;;;6.80;;
3891;SDS011;1961;48.194;16.370;2022-09-30T12:25:20;45.20;;;8.30;;
3891;SDS011;1961;48.194;16.370;2022-09-30T12:27:55;44.93;;;7.90;;
3891;SDS011;1961;48.194;16.370;2022-09-30T12:30:22;43.47;;;7.53;;
3891;SDS011;1961;48.194;16.370;2022-09-30T12:33:06;44.30;;;7.10;;
3891;SDS011;1961;48.194;16.370;2022-09-30T12:46:13;44.10;;;6.50;;
3891;SDS011;1961;48.194;16.370;2022-09-30T12:48:44;42.20;;;6.17;;
3891;SDS011;1961;48.194;16.370;2022-09-30T12:51:26;44.37;;;6.37;;
3891;SDS011;1961;48.194;16.370;2022-09-30T12:54:17;45.00;;;6.10;;
3891;SDS011;1961;48.194;16.370;2022-09-30T12:56:42;42.83;;;6.00;;
3891;SDS011;1961;48.194;16.370;2022-09-30T12:59:09;42.47;;;6.10;;
3891;SDS011;1961;48.194;16.370;2022-09-30T13:01:36;42.60;;;6.17;;
3891;SDS011;1961;48.194;16.370;2022-09-30T13:14:38;45.50;;;6.30;;
3891;SDS011;1961;48.194;16.370;2022-09-30T13:19:44;43.13;;;5.57;;
3891;SDS011;1961;48.194;16.370;2022-09-30T13:32:40;41.87;;;5.80;;
3891;SDS011;1961;48.194;16.370;2022-09-30T13:40:57;45.10;;;6.40;;
3891;SDS011;1961;48.194;16.370;2022-09-30T13:43:34;43.87;;;6.80;;
3891;SDS011;1961;48.194;16.370;2022-09-30T13:46:07;42.80;;;5.73;;
3891;SDS011;1961;48.194;16.370;2022-09-30T13:48:37;45.20;;;6.23;;
3891;SDS011;1961;48.194;16.370;2022-09-30T13:51:06;43.50;;;6.00;;
3891;SDS011;1961;48.194;16.370;2022-09-30T13:53:34;43.57;;;5.30;;
3891;SDS011;1961;48.194;16.370;2022-09-30T13:56:11;42.83;;;5.43;;
3891;SDS011;1961;48.194;16.370;2022-09-30T14:20:03;42.90;;;6.03;;
3891;SDS011;1961;48.194;16.370;2022-09-30T14:22:34;41.40;;;5.13;;
3891;SDS011;1961;48.194;16.370;2022-09-30T14:25:01;41.77;;;5.23;;
3891;SDS011;1961;48.194;16.370;2022-09-30T14:27:34;41.00;;;4.60;;
3891;SDS011;1961;48.194;16.370;2022-09-30T14:30:10;42.40;;;5.60;;
3891;SDS011;1961;48.194;16.370;2022-09-30T14:35:17;40.93;;;4.50;;
3891;SDS011;1961;48.194;16.370;2022-09-30T14:37:45;41.50;;;4.77;;
3891;SDS011;1961;48.194;16.370;2022-09-30T14:40:16;42.33;;;4.70;;
3891;SDS011;1961;48.194;16.370;2022-09-30T14:42:42;43.27;;;6.10;;
3891;SDS011;1961;48.194;16.370;2022-09-30T14:45:15;41.17;;;4.80;;
3891;SDS011;1961;48.194;16.370;2022-09-30T14:47:43;40.83;;;4.77;;
3891;SDS011;1961;48.194;16.370;2022-09-30T14:50:13;42.23;;;4.97;;
3891;SDS011;1961;48.194;16.370;2022-09-30T14:52:42;50.67;;;11.33;;
3891;SDS011;1961;48.194;16.370;2022-09-30T14:55:19;63.17;;;17.50;;
3891;SDS011;1961;48.194;16.370;2022-09-30T14:57:49;41.03;;;4.93;;
3891;SDS011;1961;48.194;16.370;2022-09-30T15:00:19;45.20;;;6.00;;
3891;SDS011;1961;48.194;16.370;2022-09-30T15:02:48;41.60;;;5.40;;
3891;SDS011;1961;48.194;16.370;2022-09-30T15:05:15;44.30;;;5.50;;
3891;SDS011;1961;48.194;16.370;2022-09-30T15:07:42;46.93;;;6.10;;
3891;SDS011;1961;48.194;16.370;2022-09-30T15:10:15;42.70;;;4.90;;
3891;SDS011;1961;48.194;16.370;2022-09-30T15:12:42;40.80;;;4.70;;
3891;SDS011;1961;48.194;16.370;2022-09-30T15:15:22;41.77;;;4.70;;
3891;SDS011;1961;48.194;16.370;2022-09-30T15:17:49;41.40;;;5.03;;
3891;SDS011;1961;48.194;16.370;2022-09-30T15:20:22;49.87;;;6.17;;
3891;SDS011;1961;48.194;16.370;2022-09-30T15:22:50;43.60;;;6.10;;
3891;SDS011;1961;48.194;16.370;2022-09-30T15:25:17;42.30;;;5.77;;
3891;SDS011;1961;48.194;16.370;2022-09-30T15:27:45;42.90;;;5.40;;
3891;SDS011;1961;48.194;16.370;2022-09-30T15:30:21;59.13;;;14.13;;
3891;SDS011;1961;48.194;16.370;2022-09-30T15:32:47;43.63;;;5.97;;
3891;SDS011;1961;48.194;16.370;2022-09-30T15:35:15;41.60;;;5.30;;
3891;SDS011;1961;48.194;16.370;2022-09-30T15:37:43;43.00;;;6.00;;
3891;SDS011;1961;48.194;16.370;2022-09-30T15:40:28;42.93;;;6.03;;
3891;SDS011;1961;48.194;16.370;2022-09-30T15:43:33;41.77;;;5.23;;
3891;SDS011;1961;48.194;16.370;2022-09-30T15:46:14;41.93;;;4.60;;
3891;SDS011;1961;48.194;16.370;2022-09-30T15:48:41;41.10;;;4.90;;
3891;SDS011;1961;48.194;16.370;2022-09-30T15:51:27;41.23;;;4.80;;
3891;SDS011;1961;48.194;16.370;2022-09-30T15:53:56;43.27;;;5.90;;
3891;SDS011;1961;48.194;16.370;2022-09-30T15:56:33;42.47;;;5.90;;
3891;SDS011;1961;48.194;16.370;2022-09-30T15:59:02;43.83;;;5.43;;
3891;SDS011;1961;48.194;16.370;2022-09-30T16:01:35;41.70;;;5.00;;
3891;SDS011;1961;48.194;16.370;2022-09-30T16:04:04;43.77;;;5.00;;
3891;SDS011;1961;48.194;16.370;2022-09-30T16:09:27;48.63;;;5.50;;
3891;SDS011;1961;48.194;16.370;2022-09-30T16:14:25;50.50;;;5.40;;
3891;SDS011;1961;48.194;16.370;2022-09-30T16:16:54;42.47;;;4.90;;
3891;SDS011;1961;48.194;16.370;2022-09-30T16:19:21;41.80;;;5.30;;
3891;SDS011;1961;48.194;16.370;2022-09-30T16:21:51;42.53;;;5.70;;
3891;SDS011;1961;48.194;16.370;2022-09-30T16:26:48;44.17;;;6.00;;
3891;SDS011;1961;48.194;16.370;2022-09-30T16:29:15;44.00;;;5.80;;
3891;SDS011;1961;48.194;16.370;2022-09-30T16:31:45;44.10;;;6.20;;
3891;SDS011;1961;48.194;16.370;2022-09-30T16:36:48;47.27;;;5.80;;
3891;SDS011;1961;48.194;16.370;2022-09-30T16:39:15;42.87;;;5.90;;
3891;SDS011;1961;48.194;16.370;2022-09-30T16:41:41;42.73;;;6.00;;
3891;SDS011;1961;48.194;16.370;2022-09-30T16:44:08;49.57;;;6.33;;
3891;SDS011;1961;48.194;16.370;2022-09-30T16:46:34;45.77;;;5.80;;
3891;SDS011;1961;48.194;16.370;2022-09-30T16:49:10;44.07;;;6.10;;
3891;SDS011;1961;48.194;16.370;2022-09-30T16:51:37;44.93;;;6.10;;
3891;SDS011;1961;48.194;16.370;2022-09-30T16:54:03;43.97;;;5.67;;
3891;SDS011;1961;48.194;16.370;2022-09-30T16:56:29;42.13;;;5.80;;
3891;SDS011;1961;48.194;16.370;2022-09-30T16:58:56;42.50;;;5.53;;
3891;SDS011;1961;48.194;16.370;2022-09-30T17:01:23;42.37;;;5.67;;
3891;SDS011;1961;48.194;16.370;2022-09-30T17:03:54;58.10;;;7.23;;
3891;SDS011;1961;48.194;16.370;2022-09-30T17:06:23;47.83;;;6.23;;
3891;SDS011;1961;48.194;16.370;2022-09-30T17:08:50;45.97;;;6.10;;
3891;SDS011;1961;48.194;16.370;2022-09-30T17:11:24;46.07;;;6.87;;
3891;SDS011;1961;48.194;16.370;2022-09-30T17:13:51;45.87;;;6.80;;
3891;SDS011;1961;48.194;16.370;2022-09-30T17:16:17;43.13;;;5.90;;
3891;SDS011;1961;48.194;16.370;2022-09-30T17:18:44;44.43;;;6.37;;
3891;SDS011;1961;48.194;16.370;2022-09-30T17:21:10;48.73;;;9.63;;
3891;SDS011;1961;48.194;16.370;2022-09-30T17:23:36;42.67;;;6.37;;
3891;SDS011;1961;48.194;16.370;2022-09-30T17:26:04;43.93;;;6.87;;
3891;SDS011;1961;48.194;16.370;2022-09-30T17:28:30;43.97;;;6.80;;
3891;SDS011;1961;48.194;16.370;2022-09-30T17:30:59;43.93;;;6.97;;
3891;SDS011;1961;48.194;16.370;2022-09-30T17:33:30;44.80;;;6.97;;
3891;SDS011;1961;48.194;16.370;2022-09-30T17:35:59;43.33;;;6.30;;
3891;SDS011;1961;48.194;16.370;2022-09-30T17:38:27;45.83;;;7.57;;
3891;SDS011;1961;48.194;16.370;2022-09-30T17:40:53;44.47;;;7.50;;
3891;SDS011;1961;48.194;16.370;2022-09-30T17:43:38;46.50;;;11.10;;
3891;SDS011;1961;48.194;16.370;2022-09-30T17:46:05;49.97;;;13.87;;
3891;SDS011;1961;48.194;16.370;2022-09-30T17:48:31;45.73;;;7.90;;
3891;SDS011;1961;48.194;16.370;2022-09-30T17:50:57;44.93;;;7.80;;
3891;SDS011;1961;48.194;16.370;2022-09-30T17:53:24;45.73;;;7.57;;